High Point, NC (27265)

1:42 PM EST on December 09, 2016 (GMT -0500)
Oak Hollow Marina | | Change Station

Elev 850 ft 36.01 °N, 80.00 °W | Updated 24 minutes ago

Clear
Clear
39.0 °F
Feels Like 35 °F
N
4.9
Wind Variable Wind from NW
Gusts 6.0 mph

Today
High -- | Low -- °F
--% Chance of Precip.
Yesterday
High -- | Low -- °F
Precip. -- in
Pressure 30.37 in
Visibility 10.0 miles
Clouds Few 4500 ft
Windchill 35 °F
Dew Point 20 °F
Humidity 46%
Rainfall 0.00 in
Snow Depth Not available.
7:19 AM 5:05 PM
Waxing Gibbous, 76% visible
METAR KGSO 091754Z VRB04KT 10SM FEW045 03/M09 A3035 RMK AO2 SLP284 T00331089 10039 21033 58010
Pressure 30.37 in
Visibility 10.0 miles
Clouds Few 4500 ft
Windchill 35 °F
Dew Point 20 °F
Humidity 46%
Rainfall 0.00 in
Snow Depth Not available.
7:19 AM 5:05 PM
Waxing Gibbous, 76% visible
METAR KGSO 091754Z VRB04KT 10SM FEW045 03/M09 A3035 RMK AO2 SLP284 T00331089 10039 21033 58010

10-Day Weather Forecast

Almanac

Astronomy

Dec. 09, 2016 Rise Set
Actual Time
Civil Twilight
Nautical Twilight
Astronomical Twilight
Moon
Length of Visible Light
Length of Day
Tomorrow will be .
, % of the Moon is Illuminated

Today's Extremes

State Highs State Lows

Community

WunderPhotos

Upload Photos

1,956,499 photos uploaded!

WunderBlog® & News

Nearby

Air Quality

  Air Quality AQ Index Pollutant
Not available.

Snow Depth

Station Depth Elevation

Earthquake Activity

City Distance Mag. Time & Date
Minimum magnitude displayed is 2.5.

Coastal Water Temperatures

Place Temperature

Stations

Nearby Weather Stations

Station Location Temp. Windchill Dew Point Humidity Wind Precip. Elev Updated Type
                   

Watches & Warnings

There are currently no watches in effect.